METAR Reports From Nearby Airports

 

KLUD - Decatur, Texas, USA
Distance from Wildwood: ESE 5mi, 8km
Mise à jour: Jul 15, 2020 9:35pm
clair
clair
 Wind from ESE
Vent: ESE 6 mph , 9 km/h
Température: 84°F , 29°C
Heat Index: 88°F , 31°C
Point de rosée: 70°F , 21°C
Humidité: 62%
Baromètre: 29.92 inHg , 1013.2 hPa
Clouds: clair
Visibility: 10 miles , 16 km
2020/07/16 02:35 KLUD 160235Z AUTO 12005KT 10SM CLR 29/21 A2992 RMK AO2 T02940206
KXBP - Bridgeport, Texas, USA
Distance from Wildwood: OSO 11mi, 18km
Mise à jour: Jul 15, 2020 9:35pm
clair
clair
 Wind from SE
Vent: SE 6 mph , 9 km/h
Température: 82°F , 28°C
Heat Index: 86°F , 30°C
Point de rosée: 70°F , 21°C
Humidité: 66%
Baromètre: 29.92 inHg , 1013.2 hPa
Clouds: clair
Visibility: 10 miles , 16 km
2020/07/16 02:35 KXBP 160235Z AUTO 14005KT 10SM CLR 28/21 A2992 RMK AO2 T02820205
 
K0F2 - Bowie, Texas, USA
Distance from Wildwood: NNO 24mi, 39km
Mise à jour: Jul 15, 2020 9:35pm
clair
clair
 Wind from SE
Vent: SE 3 mph , 6 km/h
Température: 81°F , 27°C
Heat Index: 85°F , 29°C
Point de rosée: 70°F , 21°C
Humidité: 70%
Baromètre: 29.91 inHg , 1012.9 hPa
Clouds: clair
Visibility: 10 miles , 16 km
2020/07/16 02:35 K0F2 160235Z AUTO 14003KT 10SM CLR 27/21 A2991 RMK AO2 T02710208
KDTO - Denton, Texas, USA
Distance from Wildwood: E 27mi, 44km
Mise à jour: Jul 15, 2020 8:53pm
clair
clair
 Wind from SSE
Vent: SSE 5 mph , 7 km/h
Température: 88°F , 31°C
Heat Index: 93°F , 34°C
Point de rosée: 70°F , 21°C
Humidité: 55%
Baromètre: 29.90 inHg , 1012.5 hPa
Clouds: clair
Visibility: 10 miles , 16 km
2020/07/16 01:53 KDTO 160153Z 16004KT 10SM CLR 31/21 A2990 RMK AO2 SLP114 T03110206
 
KAFW - Ft Worth/Allianc, Texas, USA
Distance from Wildwood: SE 29mi, 46km
Mise à jour: Jul 15, 2020 8:53pm
Few Clouds
Few Clouds
 Wind from SE
Vent: SE 8 mph , 13 km/h
Température: 90°F , 32°C
Heat Index: 96°F , 36°C
Point de rosée: 70°F , 21°C
Humidité: 52%
Baromètre: 29.89 inHg , 1012.2 hPa
Clouds: Few Clouds
Visibility: 10 miles , 16 km
Cloud details: Few Clouds 22000 ft
2020/07/16 01:53 KAFW 160153Z 14007KT 10SM FEW220 32/21 A2989 RMK AO2 SLP106 T03220211
KFTW - Fort Worth, Texas, USA
Distance from Wildwood: SSE 34mi, 55km
Mise à jour: Jul 15, 2020 8:53pm
clair
clair
 Wind from SE
Vent: SE 10 mph , 17 km/h
Température: 90°F , 32°C
Heat Index: 96°F , 36°C
Point de rosée: 70°F , 21°C
Humidité: 52%
Baromètre: 29.89 inHg , 1012.2 hPa
Clouds: clair
Visibility: 10 miles , 16 km
2020/07/16 01:53 KFTW 160153Z 14009KT 10SM CLR 32/21 A2989 RMK AO2 SLP111 T03220206
 
KNFW - Fort Worth Nas, Texas, USA
Distance from Wildwood: SSE 36mi, 58km
Mise à jour: Jul 15, 2020 8:52pm
Few Clouds
Few Clouds
 Wind from SE
Vent: SE 9 mph , 15 km/h
Température: 93°F , 34°C
Heat Index: 99°F , 37°C
Point de rosée: 70°F , 21°C
Humidité: 47%
Baromètre: 29.89 inHg , 1012.2 hPa
Clouds: Few Clouds
Visibility: 10 miles , 16 km
Cloud details: Few Clouds 15000 ft
2020/07/16 01:52 KNFW 160152Z 13008KT 10SM FEW150 34/21 A2989 RMK AO2 SLP107 T03390206 VISNO N $
KGLE - Gainesville, Texas, USA
Distance from Wildwood: NE 38mi, 61km
Mise à jour: Jul 15, 2020 9:15pm
clair
clair
 Wind from SSE
Vent: SSE 3 mph , 6 km/h
Température: 82°F , 28°C
Heat Index: 86°F , 30°C
Point de rosée: 70°F , 21°C
Humidité: 66%
Baromètre: 29.93 inHg , 1013.5 hPa
Clouds: clair
Visibility: 10 miles , 16 km
2020/07/16 02:15 KGLE 160215Z AUTO 15003KT 10SM CLR 28/21 A2993 RMK AO2 T02780211 PWINO
 
KMWL - Mineral Wells, Texas, USA
Distance from Wildwood: SO 41mi, 65km
Mise à jour: Jul 15, 2020 8:53pm
clair
clair
 Wind from SE
Vent: SE 7 mph , 11 km/h
Température: 88°F , 31°C
Heat Index: 90°F , 32°C
Point de rosée: 64°F , 18°C
Humidité: 46%
Baromètre: 29.88 inHg , 1011.9 hPa
Clouds: clair
Visibility: 10 miles , 16 km
2020/07/16 01:53 KMWL 160153Z AUTO 14006KT 10SM CLR 31/18 A2988 RMK AO2 SLP102 T03110178
KDFW - Dallas/Ft Worth, Texas, USA
Distance from Wildwood: ESE 45mi, 73km
Mise à jour: Jul 15, 2020 8:53pm
Few Clouds
Few Clouds
 Wind from SSE
Vent: SSE 12 mph , 19 km/h
Température: 90°F , 32°C
Heat Index: 99°F , 37°C
Point de rosée: 73°F , 23°C
Humidité: 59%
Baromètre: 29.89 inHg , 1012.2 hPa
Clouds: Few Clouds
Visibility: 10 miles , 16 km
Cloud details: Few Clouds 20000 ft
2020/07/16 01:53 KDFW 160153Z 16010KT 10SM FEW200 32/23 A2989 RMK AO2 SLP112 T03220233